Flight Track Log - Related Links

Times and Time Zones

All times are in EST time to prevent confusion due to time zone crossing. See the FLG3861 flight status page for this flight to view local times or setup timezone preferences in your user account.

Time Position Orientation Groundspeed Altitude Reporting Facility
EST Latitude Longitude Course Direction KTS MPH feet Rate Location/Type
Wed 09:48:47 PM 42.2061 -83.3672 180° South 162 186 1,500  Level Cleveland Center
Wed 09:49:36 PM 42.1642 -83.3669 180° South 215 247 3,700 2,533 Climbing Cleveland Center
Wed 09:50:17 PM 42.1264 -83.3597 172° South 212 244 5,300 2,900 Climbing Cleveland Center
Wed 09:50:36 PM 42.1006 -83.3494 164° South 253 291 6,600 2,656 Climbing Cleveland Center
Wed 09:51:18 PM 42.0742 -83.2867 120° Southeast 288 331 8,000 2,192 Climbing Cleveland Center
Wed 09:52:20 PM 42.1128 -83.1625 67° East 345 397 10,400 1,902 Climbing Cleveland Center
Wed 09:53:21 PM 42.1583 -83.0350 64° Northeast 379 436 11,900 1,512 Climbing Cleveland Center
Wed 09:54:23 PM 42.2081 -82.8986 64° Northeast 405 466 13,500 1,756 Climbing Cleveland Center
Wed 09:55:24 PM 42.2594 -82.7553 64° Northeast 425 489 15,500 1,707 Climbing Cleveland Center
Wed 09:56:26 PM 42.3108 -82.6108 64° Northeast 428 493 17,000 1,512 Climbing Cleveland Center
Wed 09:57:27 PM 42.3678 -82.4253 67° East 449 517 18,600 1,279 Climbing Cleveland Center
Wed 09:58:28 PM 42.3600 -82.2603 94° East 442 509 19,600 976 Climbing Cleveland Center
Wed 09:59:30 PM 42.3525 -82.0853 93° East 444 511 20,600 1,024 Climbing Cleveland Center
Wed 10:00:31 PM 42.3458 -81.9128 93° East 452 520 21,700 1,024 Climbing Cleveland Center
Wed 10:01:33 PM 42.3381 -81.7439 94° East 448 516 22,700 976 Climbing Cleveland Center
Wed 10:02:34 PM 42.3297 -81.5736 94° East 449 517 23,700 984 Climbing Cleveland Center
Wed 10:03:35 PM 42.3208 -81.4019 94° East 451 519 24,700 829 Climbing Cleveland Center
Wed 10:04:37 PM 42.3128 -81.2269 94° East 458 527 25,400 585 Climbing Cleveland Center
Wed 10:05:38 PM 42.3036 -81.0483 94° East 468 539 25,900 537 Climbing Cleveland Center
Wed 10:06:40 PM 42.2939 -80.8639 94° East 482 555 26,500 488 Climbing Cleveland Center
Wed 10:07:41 PM 42.2850 -80.6783 94° East 489 563 26,900 246 Climbing Cleveland Center
Wed 10:08:42 PM 42.2747 -80.4908 94° East 493 567 27,000 49 Climbing Cleveland Center
Wed 10:09:44 PM 42.2636 -80.2942 94° East 515 593 27,000  Level Cleveland Center
Wed 10:10:45 PM 42.2508 -80.0931 95° East 530 610 27,000  Level Cleveland Center
Wed 10:11:46 PM 42.2378 -79.8861 95° East 539 620 27,000  Level Cleveland Center
Wed 10:12:48 PM 42.2297 -79.6825 93° East 546 628 27,000  Level Cleveland Center
Wed 10:13:49 PM 42.2317 -79.4733 89° East 558 642 27,000  Level Cleveland Center
Wed 10:14:51 PM 42.2328 -79.2636 90° East 560 644 27,000  Level Cleveland Center
Wed 10:15:52 PM 42.2344 -79.0125 89° East 560 644 27,000  Level Cleveland Center
Wed 10:16:53 PM 42.2353 -78.8297 90° East 554 638 27,000  Level Cleveland Center
Wed 10:17:55 PM 42.2353 -78.6250 90° East 551 634 27,000  Level Cleveland Center
Wed 10:18:56 PM 42.2358 -78.3792 90° East 550 633 27,000  Level Cleveland Center
Wed 10:19:57 PM 42.2356 -78.1739 90° East 550 633 27,000  Level Cleveland Center
Wed 10:20:59 PM 42.2347 -77.9719 90° East 546 628 27,000 -195 Level Cleveland Center
Wed 10:22:00 PM 42.2328 -77.7692 91° East 548 631 26,600 -984 Descending Cleveland Center
Wed 10:23:01 PM 42.2314 -77.5739 90° East 532 612 25,000 -1,869 Descending Cleveland Center
Wed 10:24:02 PM 42.2303 -77.4092 90° East 454 522 22,800 -2,293 Descending Cleveland Center
Wed 10:25:04 PM 42.2286 -77.2450 91° East 443 510 20,300 -2,673 Descending Cleveland Center
Wed 10:25:43 PM 42.2269 -77.1111 91° East 445 512 18,300 -6,848 Descending New York Center
Wed 10:26:43 PM 42.2267 -76.9542 90° East 430 495 9,000 -2,850 Descending New York Center
Wed 10:27:43 PM 42.2222 -76.7997 92° East 419 482 12,600 550 Climbing New York Center
Wed 10:28:43 PM 42.2203 -76.6733 91° East 398 458 10,100 -1,800 Descending New York Center
Wed 10:29:43 PM 42.2181 -76.5472 91° East 366 421 9,000 -550 Descending New York Center
Wed 10:30:43 PM 42.2156 -76.4267 92° East 336 387 9,000 -700 Level New York Center
Wed 10:31:43 PM 42.2375 -76.3108 76° East 319 367 7,600 -1,800 Descending New York Center
Wed 10:32:43 PM 42.2617 -76.1981 74° East 314 361 5,400 -1,800 Descending New York Center
Wed 10:33:43 PM 42.2894 -76.0883 71° East 308 354 4,000 -1,150 Descending New York Center
Wed 10:34:43 PM 42.2650 -76.0275 118° Southeast 248 285 3,100 -850 Descending New York Center
Wed 10:35:43 PM 42.2356 -75.9886 136° Southeast 157 181 2,300 -800 Descending New York Center

Login

Don't have an account? Register now (free) for customized features, flight alerts, and more!